To NAV CANADA Home Page Login to a new session Search on AWWS site Feedback and Comments Disclaimer Vers la page française équivalente Tips FAQ What's new on the site To the Forecasts and Observations / NOTAM section To "File a Flight Plan" website Publications and other links Update of the User's profile FIC Telephone Numbers My Weather Data Folder Route Weather Data Regional Weather Data Local Weather Data To the Forecasts and Observations / NOTAM section
Request Generated 01/21/2017 at 02:04:16 UTC . Weather information available at that time is displayed.

METAR/TAF

EUREKA/NU    

METAR CWEU 210200Z 13011KT 15SM FEW060 M31/M35 A3010 RMK SC1 SLP196=
METAR CWEU 210100Z 12010KT 15SM SCT060 M31/M35 A3011 RMK SC3 SLP200=
METAR CWEU 210000Z 13010KT 15SM BKN080 M31/M34 A3013 RMK AC6 SLP205=

*** REMARK        : Forecast period has ended; this was the last TAF issued
*** REMARQUE : La période de prévision est échue; ceci était le dernier TAF qui a été émis
TAF CYEU 202338Z 2100/2102 ADVISORY OFFSITE 12010KT P6SM BKN080 TEMPO
2100/2102 P6SM -SN
RMK NXT FCST WILL BE ISSUED AT 211045Z=
Your time UTC time
Weather data provided by Environment Canada and NAV CANADA